Grand Ruby — 3EIU3 — position and weather

sailwx.info

Track history (hours):
 
Tides and Currents Weather Stations Pressure Air Temp Water Temp Dewpoint Dewpoint Depression Visibility Wind Speed Wind Dir Waves Ship Positions

Grand Ruby

Last reported at 2017-Mar-22 10:32 UTC. Time now 2017-Mar-23 02:22 UTC.
Position N 34°41' E 129°04'.

Length 199 m; draft 8 m.

Type: Cargo ship. MMSI: 372399000.

Date/timePositionNaut miles runAvg speedWind from/ knotsBaromVisibWave heightAir tempDewpointWater temp
2017-Mar-22 10:32N 34°41' E 129°04'1 0.9
2017-Mar-22 09:28N 34°41' E 129°03'3 1.6
2017-Mar-22 07:29N 34°44' E 129°03'1 1.0
2017-Mar-22 06:31N 34°43' E 129°03'1 0.8
2017-Mar-22 05:33N 34°42' E 129°03'1 0.6
2017-Mar-22 03:18N 34°42' E 129°05'2 0.7
2017-Mar-22 01:07N 34°40' E 129°04'  
2017-Mar-19 09:21N 34°36' E 128°54'1 1.3
2017-Mar-19 08:33N 34°36' E 128°55'1 1.3
2017-Mar-19 07:33N 34°37' E 128°56'  
Track history (hours):
 
Tides and Currents Weather Stations Pressure Air Temp Water Temp Dewpoint Dewpoint Depression Visibility Wind Speed Wind Dir Waves Ship Positions

Grand Ruby

Last reported at 2017-Mar-22 10:32 UTC. Time now 2017-Mar-23 02:22 UTC.
Position N 34°41' E 129°04'.

Length 199 m; draft 8 m.

Type: Cargo ship. MMSI: 372399000.

Date/timePositionNaut miles runAvg speedWind from/ knotsBaromVisibWave heightAir tempDewpointWater temp
2017-Mar-22 10:32N 34°41' E 129°04'1 0.9
2017-Mar-22 09:28N 34°41' E 129°03'3 1.6
2017-Mar-22 07:29N 34°44' E 129°03'1 1.0
2017-Mar-22 06:31N 34°43' E 129°03'1 0.8
2017-Mar-22 05:33N 34°42' E 129°03'1 0.6
2017-Mar-22 03:18N 34°42' E 129°05'2 0.7
2017-Mar-22 01:07N 34°40' E 129°04'  
2017-Mar-19 09:21N 34°36' E 128°54'1 1.3
2017-Mar-19 08:33N 34°36' E 128°55'1 1.3
2017-Mar-19 07:33N 34°37' E 128°56'  

Dump ship's entire track history